Terminal Aerodrome Forecast
Issued by NWS

Home | Current Version | Previous Version | Text Only | Print | Product List | Glossary Off
Versions: 1 2 3 4 5 6 7 8 9 10 11 12 13 14 15

316
FTUS43 KICT 212339
TAFSLN
TAF
KSLN 212339Z 2200/2224 09007KT P6SM OVC080
     FM220400 04008KT P6SM VCSH OVC070
     FM220800 35012KT 6SM BR BKN030 OVC060
     FM221200 35014G20KT P6SM BKN150=

USA.gov is the U.S. government's official web portal to all federal, state and local government web resources and services.